createdAt,value
2022-12-25T00:02:14.261Z,8.90
2022-12-25T00:04:36.884Z,9.68
2022-12-25T00:06:59.870Z,8.18
2022-12-25T00:09:22.463Z,7.90
2022-12-25T00:11:45.095Z,9.25
2022-12-25T00:14:07.685Z,12.80
2022-12-25T00:16:30.323Z,7.75
2022-12-25T00:18:53.700Z,9.77
2022-12-25T00:21:17.055Z,8.97
2022-12-25T00:23:39.927Z,7.65
2022-12-25T00:26:11.590Z,7.78
2022-12-25T00:28:35.955Z,10.63
2022-12-25T00:30:58.485Z,9.55
2022-12-25T00:33:21.190Z,11.33
2022-12-25T00:35:44.113Z,8.30
2022-12-25T00:38:06.932Z,9.38
2022-12-25T00:40:29.548Z,9.25
2022-12-25T00:42:52.279Z,9.18
2022-12-25T00:45:15.971Z,7.63
2022-12-25T00:47:38.831Z,6.20
2022-12-25T00:50:01.763Z,8.43
2022-12-25T00:52:24.842Z,8.65
2022-12-25T00:54:47.402Z,7.68
2022-12-25T00:57:10.114Z,9.70
2022-12-25T00:59:34.440Z,9.30
2022-12-25T01:02:17.522Z,9.77
2022-12-25T01:04:40.337Z,7.60
2022-12-25T01:07:02.876Z,9.02
2022-12-25T01:09:44.082Z,6.27
2022-12-25T01:12:06.852Z,8.50
2022-12-25T01:14:29.386Z,8.85
2022-12-25T01:16:52.082Z,8.77
2022-12-25T01:19:14.745Z,9.48
2022-12-25T01:21:38.019Z,7.10
2022-12-25T01:24:00.614Z,12.05
2022-12-25T01:26:25.688Z,8.38
2022-12-25T01:28:49.427Z,9.30
2022-12-25T01:31:15.703Z,7.05
2022-12-25T01:33:39.452Z,8.10
2022-12-25T01:36:02.024Z,7.38
2022-12-25T01:38:24.700Z,7.18
2022-12-25T01:40:47.385Z,6.82
2022-12-25T01:43:31.451Z,7.93
2022-12-25T01:45:54.382Z,8.20
2022-12-25T01:48:23.689Z,9.18
2022-12-25T01:50:51.532Z,6.90
2022-12-25T01:53:14.456Z,8.40
2022-12-25T01:55:38.229Z,7.45
2022-12-25T01:58:00.939Z,9.13
2022-12-25T02:00:23.667Z,9.32
2022-12-25T02:02:46.830Z,9.30
2022-12-25T02:05:25.980Z,8.25
2022-12-25T02:07:49.645Z,6.95
2022-12-25T02:10:13.171Z,8.07
2022-12-25T02:12:35.969Z,7.32
2022-12-25T02:15:06.449Z,9.85
2022-12-25T02:17:50.975Z,8.48
2022-12-25T02:20:35.182Z,7.97
2022-12-25T02:23:19.680Z,6.40
2022-12-25T02:26:12.935Z,6.82
2022-12-25T02:28:52.741Z,11.85
2022-12-25T02:31:38.033Z,7.88
2022-12-25T02:34:06.494Z,10.80
2022-12-25T02:36:32.728Z,7.47
2022-12-25T02:39:17.326Z,7.60
2022-12-25T02:41:45.591Z,6.68
2022-12-25T02:44:34.720Z,7.00
2022-12-25T02:47:16.227Z,9.43
2022-12-25T02:49:58.568Z,9.10
2022-12-25T02:52:42.500Z,7.10
2022-12-25T02:55:39.893Z,12.10
2022-12-25T02:58:28.266Z,7.28
2022-12-25T03:01:17.966Z,7.90
2022-12-25T03:04:01.588Z,7.97
2022-12-25T03:06:44.242Z,7.88
2022-12-25T03:09:30.957Z,7.60
2022-12-25T03:12:00.163Z,10.07
2022-12-25T03:14:41.649Z,10.93
2022-12-25T03:17:04.376Z,11.13
2022-12-25T03:19:49.822Z,10.23
2022-12-25T03:22:37.810Z,8.50
2022-12-25T03:25:19.370Z,9.27
2022-12-25T03:27:44.155Z,9.07
2022-12-25T03:30:28.180Z,10.00
2022-12-25T03:33:43.139Z,11.73
2022-12-25T03:36:10.236Z,8.63
2022-12-25T03:39:07.370Z,7.18
2022-12-25T03:42:14.935Z,8.75
2022-12-25T03:44:54.359Z,10.47
2022-12-25T03:47:31.811Z,8.80
2022-12-25T03:50:34.364Z,9.40
2022-12-25T03:53:17.870Z,10.63
2022-12-25T03:56:00.791Z,9.32
2022-12-25T03:58:43.784Z,10.73
2022-12-25T04:01:25.323Z,10.65
2022-12-25T04:04:07.065Z,10.52
2022-12-25T04:06:48.494Z,11.73
2022-12-25T04:09:29.944Z,14.00
2022-12-25T04:12:11.313Z,11.13
2022-12-25T04:14:52.294Z,10.30
2022-12-25T04:17:33.792Z,12.32
2022-12-25T04:20:15.634Z,16.15
2022-12-25T04:22:57.123Z,11.55
2022-12-25T04:25:38.382Z,12.80
2022-12-25T04:28:20.746Z,12.60
2022-12-25T04:31:01.565Z,14.00
2022-12-25T04:33:42.943Z,14.10
2022-12-25T04:36:12.515Z,11.85
2022-12-25T04:38:36.903Z,12.97
2022-12-25T04:41:00.984Z,11.65
2022-12-25T04:43:25.260Z,13.20
2022-12-25T04:45:56.316Z,14.82
2022-12-25T04:48:19.065Z,16.02
2022-12-25T04:50:41.622Z,13.30
2022-12-25T04:53:04.201Z,15.82
2022-12-25T04:55:26.806Z,16.65
2022-12-25T04:57:49.869Z,11.70
2022-12-25T05:00:12.738Z,11.65
2022-12-25T05:02:35.627Z,12.97
2022-12-25T05:04:58.628Z,13.23
2022-12-25T05:07:21.255Z,13.25
2022-12-25T05:09:43.920Z,12.80
2022-12-25T05:12:06.533Z,17.02
2022-12-25T05:14:29.123Z,15.17
2022-12-25T05:16:51.698Z,12.23
2022-12-25T05:19:14.702Z,9.57
2022-12-25T05:21:37.355Z,9.05
2022-12-25T05:24:00.042Z,11.55
2022-12-25T05:26:25.195Z,7.77
2022-12-25T05:28:48.282Z,7.50
2022-12-25T05:31:11.009Z,8.13
2022-12-25T05:33:33.816Z,9.27
2022-12-25T05:35:56.403Z,9.23
2022-12-25T05:38:18.988Z,7.03
2022-12-25T05:40:41.579Z,8.13
2022-12-25T05:43:04.064Z,10.00
2022-12-25T05:45:26.668Z,9.10
2022-12-25T05:47:49.212Z,12.82
2022-12-25T05:50:11.989Z,12.80
2022-12-25T05:52:35.071Z,11.95
2022-12-25T05:54:57.708Z,13.82
2022-12-25T05:57:20.293Z,13.73
2022-12-25T05:59:43.172Z,12.80
2022-12-25T06:02:05.793Z,12.97
2022-12-25T06:04:28.614Z,14.52
2022-12-25T06:06:56.724Z,14.52
2022-12-25T06:09:19.455Z,14.35
2022-12-25T06:11:42.275Z,12.52
2022-12-25T06:14:05.006Z,13.47
2022-12-25T06:16:30.489Z,12.10
2022-12-25T06:18:57.000Z,16.38
2022-12-25T06:21:20.103Z,13.25
2022-12-25T06:23:42.802Z,12.80
2022-12-25T06:26:14.340Z,15.27
2022-12-25T06:28:37.196Z,13.82
2022-12-25T06:31:05.213Z,13.82
2022-12-25T06:33:27.838Z,15.60
2022-12-25T06:35:50.446Z,14.10
2022-12-25T06:38:13.048Z,16.13
2022-12-25T06:40:35.685Z,14.65
2022-12-25T06:42:58.278Z,16.83
2022-12-25T06:45:21.120Z,20.48
2022-12-25T06:47:43.678Z,15.07
2022-12-25T06:50:06.966Z,13.57
2022-12-25T06:52:32.440Z,13.63
2022-12-25T06:54:55.021Z,13.55
2022-12-25T06:57:18.989Z,14.70
2022-12-25T06:59:41.589Z,18.05
2022-12-25T07:02:04.590Z,15.97
2022-12-25T07:04:41.745Z,14.45
2022-12-25T07:07:09.157Z,14.50
2022-12-25T07:09:32.403Z,16.20
2022-12-25T07:12:02.009Z,16.10
2022-12-25T07:14:24.829Z,14.57
2022-12-25T07:16:47.936Z,14.80
2022-12-25T07:19:10.935Z,14.60
2022-12-25T07:21:33.552Z,12.43
2022-12-25T07:23:56.181Z,15.43
2022-12-25T07:26:19.296Z,14.83
2022-12-25T07:28:41.973Z,13.55
2022-12-25T07:31:07.393Z,14.93
2022-12-25T07:33:30.235Z,15.10
2022-12-25T07:35:52.853Z,13.05
2022-12-25T07:38:15.458Z,15.47
2022-12-25T07:40:38.618Z,13.43
2022-12-25T07:43:01.589Z,14.75
2022-12-25T07:45:25.063Z,14.48
2022-12-25T07:47:47.737Z,15.95
2022-12-25T07:50:10.922Z,16.10
2022-12-25T07:52:39.589Z,17.40
2022-12-25T07:55:06.263Z,14.85
2022-12-25T07:57:29.836Z,17.15
2022-12-25T07:59:52.451Z,14.23
2022-12-25T08:02:15.286Z,15.17
2022-12-25T08:04:38.247Z,13.77
2022-12-25T08:07:02.812Z,13.90
2022-12-25T08:09:25.804Z,12.02
2022-12-25T08:11:48.435Z,10.52
2022-12-25T08:14:11.049Z,10.33
2022-12-25T08:16:33.924Z,13.85
2022-12-25T08:18:57.142Z,11.00
2022-12-25T08:21:19.897Z,11.55
2022-12-25T08:23:44.182Z,12.07
2022-12-25T08:26:08.609Z,12.20
2022-12-25T08:28:31.302Z,8.15
2022-12-25T08:30:53.935Z,7.47
2022-12-25T08:33:16.746Z,7.75
2022-12-25T08:35:39.442Z,6.65
2022-12-25T08:38:02.493Z,8.83
2022-12-25T08:40:25.688Z,7.85
2022-12-25T08:42:48.229Z,10.73
2022-12-25T08:45:11.381Z,7.60
2022-12-25T08:47:34.207Z,7.35
2022-12-25T08:49:57.292Z,7.20
2022-12-25T08:52:20.197Z,6.85
2022-12-25T08:54:43.036Z,8.02
2022-12-25T08:57:05.720Z,5.63
2022-12-25T08:59:28.390Z,6.30
2022-12-25T09:01:51.450Z,6.97
2022-12-25T09:04:14.614Z,6.30
2022-12-25T09:06:37.338Z,6.68
2022-12-25T09:09:00.043Z,7.07
2022-12-25T09:11:24.170Z,7.72
2022-12-25T09:13:47.659Z,7.23
2022-12-25T09:16:13.647Z,6.32
2022-12-25T09:18:36.813Z,6.10
2022-12-25T09:21:01.419Z,6.65
2022-12-25T09:23:24.499Z,7.30
2022-12-25T09:25:47.279Z,6.03
2022-12-25T09:28:09.948Z,6.65
2022-12-25T09:30:32.595Z,5.85
2022-12-25T09:32:55.402Z,7.00
2022-12-25T09:35:19.117Z,6.20
2022-12-25T09:37:41.780Z,6.33
2022-12-25T09:40:13.139Z,6.53
2022-12-25T09:42:36.118Z,6.47
2022-12-25T09:45:02.882Z,6.88
2022-12-25T09:47:36.723Z,5.50
2022-12-25T09:50:35.324Z,6.30
2022-12-25T09:53:02.938Z,5.95
2022-12-25T09:55:28.714Z,7.65
2022-12-25T09:58:02.325Z,9.32
2022-12-25T10:00:30.546Z,7.38
2022-12-25T10:03:11.139Z,9.33
2022-12-25T10:06:00.422Z,9.52
2022-12-25T10:08:28.940Z,7.75
2022-12-25T10:11:02.495Z,6.32
2022-12-25T10:13:46.886Z,7.30
2022-12-25T10:16:09.523Z,6.27
2022-12-25T10:18:48.001Z,9.55
2022-12-25T10:21:14.271Z,7.78
2022-12-25T10:23:51.901Z,6.53
2022-12-25T10:26:25.199Z,6.28
2022-12-25T10:29:13.476Z,7.53
2022-12-25T10:31:37.460Z,8.40
2022-12-25T10:34:00.402Z,7.68
2022-12-25T10:36:25.610Z,9.10
2022-12-25T10:38:48.700Z,7.55
2022-12-25T10:41:27.515Z,8.20
2022-12-25T10:43:53.730Z,6.28
2022-12-25T10:46:17.415Z,8.23
2022-12-25T10:48:48.177Z,5.55
2022-12-25T10:51:11.044Z,6.63
2022-12-25T10:53:41.187Z,7.77
2022-12-25T10:56:06.185Z,8.75
2022-12-25T10:58:30.004Z,8.63
2022-12-25T11:01:02.215Z,9.65
2022-12-25T11:03:29.982Z,8.23
2022-12-25T11:05:52.992Z,9.13
2022-12-25T11:08:21.675Z,7.75
2022-12-25T11:10:51.667Z,10.80
2022-12-25T11:13:24.584Z,7.28
2022-12-25T11:16:00.964Z,6.60
2022-12-25T11:18:28.573Z,6.70
2022-12-25T11:21:14.387Z,5.68
2022-12-25T11:23:44.911Z,7.53
2022-12-25T11:26:13.439Z,6.25
2022-12-25T11:28:38.645Z,6.22
2022-12-25T11:31:21.741Z,5.47
2022-12-25T11:33:59.496Z,6.22
2022-12-25T11:36:43.191Z,6.80
2022-12-25T11:39:30.011Z,7.38
2022-12-25T11:41:59.407Z,6.35
2022-12-25T11:44:39.303Z,7.17
2022-12-25T11:47:13.053Z,10.25
2022-12-25T11:49:52.172Z,12.75
2022-12-25T11:52:20.108Z,10.38
2022-12-25T11:54:54.667Z,13.38
2022-12-25T11:57:17.495Z,12.83
2022-12-25T11:59:56.179Z,12.30
2022-12-25T12:02:46.206Z,11.70
2022-12-25T12:05:23.373Z,11.73
2022-12-25T12:07:57.400Z,10.95
2022-12-25T12:10:29.007Z,11.17
2022-12-25T12:13:02.344Z,10.23
2022-12-25T12:15:30.743Z,10.43
2022-12-25T12:17:53.668Z,9.80
2022-12-25T12:20:33.806Z,10.32
2022-12-25T12:22:57.254Z,14.53
2022-12-25T12:25:20.925Z,13.20
2022-12-25T12:27:44.190Z,11.25
2022-12-25T12:30:21.883Z,14.43
2022-12-25T12:32:47.754Z,11.07
2022-12-25T12:35:18.719Z,12.07
2022-12-25T12:37:42.424Z,12.38
2022-12-25T12:40:07.940Z,9.68
2022-12-25T12:42:40.267Z,10.32
2022-12-25T12:45:15.743Z,11.13
2022-12-25T12:47:42.312Z,11.30
2022-12-25T12:50:06.099Z,12.77
2022-12-25T12:52:38.325Z,11.50
2022-12-25T12:55:04.472Z,9.90
2022-12-25T12:57:31.631Z,9.75
2022-12-25T12:59:54.900Z,8.77
2022-12-25T13:02:56.387Z,9.23
2022-12-25T13:05:37.842Z,10.93
2022-12-25T13:08:33.393Z,10.05
2022-12-25T13:11:21.755Z,11.43
2022-12-25T13:13:45.723Z,12.73
2022-12-25T13:16:21.118Z,9.73
2022-12-25T13:18:44.310Z,14.60
2022-12-25T13:21:07.592Z,14.70
2022-12-25T13:23:36.997Z,16.17
2022-12-25T13:26:02.808Z,15.37
2022-12-25T13:28:30.617Z,10.73
2022-12-25T13:30:53.391Z,13.68
2022-12-25T13:33:19.477Z,11.68
2022-12-25T13:35:45.387Z,10.85
2022-12-25T13:38:16.917Z,11.30
2022-12-25T13:40:39.614Z,9.43
2022-12-25T13:43:02.420Z,11.20
2022-12-25T13:45:27.948Z,11.23
2022-12-25T13:47:55.414Z,8.63
2022-12-25T13:50:31.850Z,9.67
2022-12-25T13:52:56.471Z,8.73
2022-12-25T13:55:28.428Z,8.52
2022-12-25T13:57:57.810Z,10.50
2022-12-25T14:00:35.304Z,10.05
2022-12-25T14:02:58.977Z,7.90
2022-12-25T14:05:37.985Z,9.50
2022-12-25T14:08:15.002Z,7.55
2022-12-25T14:10:40.433Z,7.63
2022-12-25T14:13:06.758Z,6.45
2022-12-25T14:15:33.909Z,7.07
2022-12-25T14:17:57.004Z,11.10
2022-12-25T14:20:36.248Z,8.23
2022-12-25T14:23:00.867Z,10.68
2022-12-25T14:25:31.206Z,10.80
2022-12-25T14:27:53.827Z,7.77
2022-12-25T14:30:17.081Z,7.55
2022-12-25T14:32:44.556Z,7.40
2022-12-25T14:35:09.729Z,9.85
2022-12-25T14:37:34.320Z,9.55
2022-12-25T14:39:59.794Z,9.40
2022-12-25T14:42:29.052Z,9.93
2022-12-25T14:45:03.501Z,10.20
2022-12-25T14:47:27.196Z,13.80
2022-12-25T14:49:50.010Z,10.90
2022-12-25T14:52:39.352Z,11.33
2022-12-25T14:55:06.248Z,12.02
2022-12-25T14:57:34.429Z,14.70
2022-12-25T15:00:03.489Z,12.93
2022-12-25T15:02:30.870Z,11.80
2022-12-25T15:04:53.746Z,11.17
2022-12-25T15:07:28.925Z,12.68
2022-12-25T15:10:10.532Z,10.20
2022-12-25T15:12:34.148Z,11.27
2022-12-25T15:14:56.774Z,10.70
2022-12-25T15:17:25.561Z,11.77
2022-12-25T15:19:48.247Z,10.35
2022-12-25T15:22:13.316Z,10.38
2022-12-25T15:24:35.860Z,10.35
2022-12-25T15:27:00.451Z,11.30
2022-12-25T15:29:44.520Z,11.63
2022-12-25T15:32:14.263Z,12.30
2022-12-25T15:34:36.831Z,13.43
2022-12-25T15:36:59.690Z,12.68
2022-12-25T15:39:22.424Z,12.95
2022-12-25T15:42:03.350Z,13.00
2022-12-25T15:44:26.260Z,14.35
2022-12-25T15:46:49.000Z,15.80
2022-12-25T15:49:12.513Z,15.57
2022-12-25T15:51:35.450Z,14.98
2022-12-25T15:53:59.094Z,14.13
2022-12-25T15:56:23.057Z,15.90
2022-12-25T15:58:45.654Z,14.85
2022-12-25T16:01:14.267Z,15.88
2022-12-25T16:03:37.136Z,14.23
2022-12-25T16:05:59.743Z,14.20
2022-12-25T16:08:22.616Z,13.88
2022-12-25T16:10:45.266Z,12.52
2022-12-25T16:13:08.032Z,12.57
2022-12-25T16:15:30.570Z,14.02
2022-12-25T16:17:53.230Z,13.23
2022-12-25T16:20:16.027Z,14.85
2022-12-25T16:22:42.121Z,13.27
2022-12-25T16:25:05.027Z,15.60
2022-12-25T16:27:27.660Z,15.00
2022-12-25T16:29:50.292Z,12.27
2022-12-25T16:32:14.172Z,11.80
2022-12-25T16:34:37.052Z,14.07
2022-12-25T16:36:59.633Z,16.63
2022-12-25T16:39:22.443Z,15.70
2022-12-25T16:41:48.219Z,16.03
2022-12-25T16:44:11.941Z,16.98
2022-12-25T16:46:35.195Z,16.08
2022-12-25T16:48:57.822Z,18.08
2022-12-25T16:51:21.724Z,17.08
2022-12-25T16:53:44.463Z,16.90
2022-12-25T16:56:16.260Z,17.38
2022-12-25T16:58:39.302Z,17.92
2022-12-25T17:01:10.688Z,20.90
2022-12-25T17:03:33.491Z,21.15
2022-12-25T17:05:56.126Z,19.70
2022-12-25T17:08:18.864Z,19.40
2022-12-25T17:10:41.463Z,19.70
2022-12-25T17:13:03.967Z,20.15
2022-12-25T17:15:27.700Z,20.73
2022-12-25T17:17:50.299Z,20.00
2022-12-25T17:20:12.924Z,23.50
2022-12-25T17:22:35.601Z,21.75
2022-12-25T17:24:58.457Z,21.00
2022-12-25T17:27:21.075Z,22.33
2022-12-25T17:29:44.198Z,22.87
2022-12-25T17:32:08.333Z,23.58
2022-12-25T17:34:30.920Z,28.05
2022-12-25T17:36:54.535Z,26.75
2022-12-25T17:39:17.544Z,29.25
2022-12-25T17:41:40.054Z,25.77
2022-12-25T17:44:02.669Z,23.92
2022-12-25T17:46:27.675Z,26.13
2022-12-25T17:48:51.900Z,24.33
2022-12-25T17:51:16.672Z,34.40
2022-12-25T17:53:41.765Z,42.00
2022-12-25T17:56:04.744Z,42.97
2022-12-25T17:58:27.770Z,31.95
2022-12-25T18:00:50.535Z,27.05
2022-12-25T18:03:13.246Z,31.02
2022-12-25T18:05:36.417Z,24.87
2022-12-25T18:07:59.342Z,28.60
2022-12-25T18:10:22.165Z,30.27
2022-12-25T18:12:45.621Z,29.58
2022-12-25T18:15:08.882Z,32.80
2022-12-25T18:17:31.444Z,28.80
2022-12-25T18:19:54.591Z,29.92
2022-12-25T18:22:17.247Z,29.58
2022-12-25T18:24:39.891Z,28.92
2022-12-25T18:27:02.644Z,28.98
2022-12-25T18:29:25.229Z,26.87
2022-12-25T18:31:48.046Z,25.50
2022-12-25T18:34:10.850Z,25.00
2022-12-25T18:36:33.737Z,29.75
2022-12-25T18:38:56.951Z,27.80
2022-12-25T18:41:21.380Z,29.23
2022-12-25T18:43:53.090Z,27.83
2022-12-25T18:46:18.365Z,25.02
2022-12-25T18:49:22.278Z,23.25
2022-12-25T18:51:46.048Z,24.67
2022-12-25T18:54:08.619Z,21.90
2022-12-25T18:56:31.188Z,23.40
2022-12-25T18:58:54.075Z,27.08
2022-12-25T19:01:23.830Z,24.15
2022-12-25T19:03:49.150Z,26.42
2022-12-25T19:06:25.053Z,22.97
2022-12-25T19:08:47.686Z,20.85
2022-12-25T19:11:10.247Z,21.85
2022-12-25T19:13:32.881Z,27.10
2022-12-25T19:15:59.358Z,25.23
2022-12-25T19:18:22.007Z,24.27
2022-12-25T19:20:44.800Z,30.27
2022-12-25T19:23:08.596Z,33.38
2022-12-25T19:25:31.797Z,39.17
2022-12-25T19:27:54.729Z,42.58
2022-12-25T19:30:18.299Z,44.13
2022-12-25T19:32:41.088Z,42.83
2022-12-25T19:35:04.943Z,48.15
2022-12-25T19:37:27.568Z,44.80
2022-12-25T19:39:50.320Z,39.03
2022-12-25T19:42:16.423Z,32.17
2022-12-25T19:44:39.065Z,25.15
2022-12-25T19:47:01.697Z,24.40
2022-12-25T19:49:24.307Z,22.02
2022-12-25T19:51:47.082Z,22.20
2022-12-25T19:54:15.242Z,20.87
2022-12-25T19:56:37.877Z,21.60
2022-12-25T19:59:00.841Z,23.08
2022-12-25T20:01:25.917Z,19.00
2022-12-25T20:03:49.330Z,19.98
2022-12-25T20:06:19.920Z,20.27
2022-12-25T20:08:42.754Z,20.38
2022-12-25T20:11:05.448Z,19.25
2022-12-25T20:13:28.302Z,22.63
2022-12-25T20:15:50.991Z,24.98
2022-12-25T20:18:14.028Z,24.60
2022-12-25T20:20:36.838Z,26.83
2022-12-25T20:22:59.621Z,29.27
2022-12-25T20:25:22.202Z,26.15
2022-12-25T20:27:45.165Z,26.08
2022-12-25T20:30:08.450Z,27.13
2022-12-25T20:32:31.362Z,27.08
2022-12-25T20:34:53.927Z,25.52
2022-12-25T20:37:16.554Z,29.25
2022-12-25T20:39:40.216Z,32.47
2022-12-25T20:42:02.909Z,28.07
2022-12-25T20:44:25.615Z,27.23
2022-12-25T20:46:48.214Z,24.35
2022-12-25T20:49:10.818Z,24.90
2022-12-25T20:51:38.370Z,23.50
2022-12-25T20:54:01.634Z,26.60
2022-12-25T20:56:26.471Z,25.60
2022-12-25T20:58:56.022Z,24.80
2022-12-25T21:01:18.918Z,27.27
2022-12-25T21:03:41.967Z,26.63
2022-12-25T21:06:05.041Z,27.47
2022-12-25T21:08:28.167Z,26.10
2022-12-25T21:10:53.041Z,26.70
2022-12-25T21:13:15.816Z,28.90
2022-12-25T21:15:43.901Z,27.88
2022-12-25T21:18:06.398Z,30.63
2022-12-25T21:20:29.254Z,26.92
2022-12-25T21:22:51.798Z,30.27
2022-12-25T21:25:14.439Z,28.88
2022-12-25T21:27:36.936Z,28.92
2022-12-25T21:29:59.557Z,28.47
2022-12-25T21:32:56.651Z,26.13
2022-12-25T21:35:19.226Z,25.95
2022-12-25T21:37:41.771Z,26.70
2022-12-25T21:40:04.931Z,28.75
2022-12-25T21:42:27.583Z,24.47
2022-12-25T21:44:50.694Z,26.33
2022-12-25T21:47:13.224Z,25.58
2022-12-25T21:49:54.832Z,25.40
2022-12-25T21:52:17.526Z,26.98
2022-12-25T21:54:40.047Z,23.23
2022-12-25T21:57:03.161Z,22.60
2022-12-25T21:59:25.937Z,23.05
2022-12-25T22:01:50.561Z,22.42
2022-12-25T22:04:15.363Z,25.45
2022-12-25T22:06:57.177Z,24.70
2022-12-25T22:09:20.598Z,22.88
2022-12-25T22:12:01.903Z,27.77
2022-12-25T22:14:52.614Z,29.73
2022-12-25T22:17:38.888Z,27.23
2022-12-25T22:20:02.351Z,24.33
2022-12-25T22:22:29.943Z,20.58
2022-12-25T22:24:54.843Z,22.13
2022-12-25T22:27:17.884Z,23.08
2022-12-25T22:29:41.728Z,19.55
2022-12-25T22:32:05.119Z,23.93
2022-12-25T22:34:28.641Z,21.00
2022-12-25T22:36:51.256Z,21.38
2022-12-25T22:39:13.945Z,21.58
2022-12-25T22:41:36.589Z,28.35
2022-12-25T22:46:41.979Z,20.70
2022-12-25T22:49:04.820Z,18.77
2022-12-25T22:51:27.658Z,22.20
2022-12-25T22:53:50.392Z,25.88
2022-12-25T22:56:13.078Z,24.93
2022-12-25T22:58:36.043Z,24.35
2022-12-25T23:00:59.161Z,22.40
2022-12-25T23:03:21.908Z,23.38
2022-12-25T23:05:44.668Z,26.33
2022-12-25T23:08:07.275Z,22.03
2022-12-25T23:10:30.823Z,22.45
2022-12-25T23:13:12.166Z,26.00
2022-12-25T23:15:35.033Z,24.58
2022-12-25T23:18:16.530Z,23.20
2022-12-25T23:20:57.741Z,22.97
2022-12-25T23:23:39.090Z,23.08
2022-12-25T23:26:08.405Z,27.63
2022-12-25T23:28:49.675Z,24.98
2022-12-25T23:31:12.524Z,23.00
2022-12-25T23:33:35.255Z,25.53
2022-12-25T23:35:58.037Z,24.55
2022-12-25T23:38:20.663Z,23.08
2022-12-25T23:40:43.341Z,23.63
2022-12-25T23:43:06.146Z,21.85
2022-12-25T23:45:28.634Z,21.83
2022-12-25T23:47:51.231Z,23.95
2022-12-25T23:50:13.992Z,21.85
2022-12-25T23:52:36.611Z,23.77
2022-12-25T23:54:59.310Z,23.77
2022-12-25T23:57:21.878Z,22.87
2022-12-25T23:59:44.644Z,24.77
